Ballincollig, Ireland
Current Conditions -  °F | °C
As of 1:30 PM on Friday 19 Dec 2014 (Local Time) from EICK Reporting Station
Broken Clouds Broken Clouds  
Wind Chill:   Ceiling: 3100
Heat Index:   Visibility: 6mi
Dew Point:   Wind: 15mph
Humidity: 71%   Direction: 280°W
Pressure: 30.12"   Gusts: NA
Location:  51.89°N, 8.59°W
Report Text: EICK 191330Z 28013KT 9999 BKN031 08/03 Q1020 NOSIG
Loading
Personal Weather Stations






























Interactive Weather Map New forecast layout! Learn more

10-Day Weather Forecast

Advertisements
Track Severe Weather on mobile